sensor_id;sensor_type;location;lat;lon;timestamp;P1;durP1;ratioP1;P2;durP2;ratioP2
20080;SDS011;10200;49.232;9.222;2023-04-16T00:01:21;5.87;;;4.60;;
20080;SDS011;10200;49.232;9.222;2023-04-16T00:03:47;7.20;;;4.40;;
20080;SDS011;10200;49.232;9.222;2023-04-16T00:06:12;6.00;;;5.00;;
20080;SDS011;10200;49.232;9.222;2023-04-16T00:08:38;9.10;;;5.00;;
20080;SDS011;10200;49.232;9.222;2023-04-16T00:11:05;7.90;;;5.10;;
20080;SDS011;10200;49.232;9.222;2023-04-16T00:13:30;5.90;;;4.70;;
20080;SDS011;10200;49.232;9.222;2023-04-16T00:15:56;5.57;;;4.70;;
20080;SDS011;10200;49.232;9.222;2023-04-16T00:18:23;7.10;;;5.00;;
20080;SDS011;10200;49.232;9.222;2023-04-16T00:20:48;6.67;;;5.30;;
20080;SDS011;10200;49.232;9.222;2023-04-16T00:23:14;5.17;;;4.67;;
20080;SDS011;10200;49.232;9.222;2023-04-16T00:25:41;5.30;;;4.27;;
20080;SDS011;10200;49.232;9.222;2023-04-16T00:28:07;5.83;;;4.70;;
20080;SDS011;10200;49.232;9.222;2023-04-16T00:30:33;6.60;;;4.97;;
20080;SDS011;10200;49.232;9.222;2023-04-16T00:32:59;6.27;;;4.33;;
20080;SDS011;10200;49.232;9.222;2023-04-16T00:35:24;7.93;;;5.00;;
20080;SDS011;10200;49.232;9.222;2023-04-16T00:37:50;6.33;;;5.00;;
20080;SDS011;10200;49.232;9.222;2023-04-16T00:40:16;6.67;;;4.40;;
20080;SDS011;10200;49.232;9.222;2023-04-16T00:42:42;6.70;;;4.87;;
20080;SDS011;10200;49.232;9.222;2023-04-16T00:45:07;5.73;;;4.43;;
20080;SDS011;10200;49.232;9.222;2023-04-16T00:47:34;6.20;;;5.03;;
20080;SDS011;10200;49.232;9.222;2023-04-16T00:50:00;5.47;;;4.60;;
20080;SDS011;10200;49.232;9.222;2023-04-16T00:52:30;6.97;;;4.63;;
20080;SDS011;10200;49.232;9.222;2023-04-16T00:54:57;6.13;;;4.70;;
20080;SDS011;10200;49.232;9.222;2023-04-16T00:57:23;5.13;;;4.00;;
20080;SDS011;10200;49.232;9.222;2023-04-16T00:59:49;6.00;;;4.70;;
20080;SDS011;10200;49.232;9.222;2023-04-16T01:02:15;4.73;;;4.10;;
20080;SDS011;10200;49.232;9.222;2023-04-16T01:04:41;5.17;;;4.10;;
20080;SDS011;10200;49.232;9.222;2023-04-16T01:07:07;4.77;;;3.93;;
20080;SDS011;10200;49.232;9.222;2023-04-16T01:09:33;4.10;;;3.47;;
20080;SDS011;10200;49.232;9.222;2023-04-16T01:11:58;4.80;;;3.57;;
20080;SDS011;10200;49.232;9.222;2023-04-16T01:14:24;4.33;;;3.20;;
20080;SDS011;10200;49.232;9.222;2023-04-16T01:16:49;3.67;;;3.10;;
20080;SDS011;10200;49.232;9.222;2023-04-16T01:19:15;4.60;;;3.13;;
20080;SDS011;10200;49.232;9.222;2023-04-16T01:21:40;4.13;;;3.53;;
20080;SDS011;10200;49.232;9.222;2023-04-16T01:24:06;4.07;;;3.10;;
20080;SDS011;10200;49.232;9.222;2023-04-16T01:26:32;3.50;;;3.00;;
20080;SDS011;10200;49.232;9.222;2023-04-16T01:28:57;3.53;;;2.70;;
20080;SDS011;10200;49.232;9.222;2023-04-16T01:31:23;3.30;;;3.00;;
20080;SDS011;10200;49.232;9.222;2023-04-16T01:33:49;3.50;;;3.20;;
20080;SDS011;10200;49.232;9.222;2023-04-16T01:36:15;3.83;;;3.17;;
20080;SDS011;10200;49.232;9.222;2023-04-16T01:38:41;3.60;;;2.73;;
20080;SDS011;10200;49.232;9.222;2023-04-16T01:41:06;7.13;;;3.37;;
20080;SDS011;10200;49.232;9.222;2023-04-16T01:43:32;6.53;;;3.43;;
20080;SDS011;10200;49.232;9.222;2023-04-16T01:48:47;5.10;;;3.50;;
20080;SDS011;10200;49.232;9.222;2023-04-16T01:51:13;3.50;;;3.17;;
20080;SDS011;10200;49.232;9.222;2023-04-16T01:53:39;3.47;;;3.17;;
20080;SDS011;10200;49.232;9.222;2023-04-16T01:56:04;3.10;;;2.80;;
20080;SDS011;10200;49.232;9.222;2023-04-16T01:58:31;4.70;;;4.00;;
20080;SDS011;10200;49.232;9.222;2023-04-16T02:00:57;4.73;;;3.80;;
20080;SDS011;10200;49.232;9.222;2023-04-16T02:03:23;6.43;;;3.80;;
20080;SDS011;10200;49.232;9.222;2023-04-16T02:05:49;4.97;;;3.87;;
20080;SDS011;10200;49.232;9.222;2023-04-16T02:08:15;5.27;;;4.10;;
20080;SDS011;10200;49.232;9.222;2023-04-16T02:10:41;4.27;;;3.63;;
20080;SDS011;10200;49.232;9.222;2023-04-16T02:13:09;4.23;;;3.20;;
20080;SDS011;10200;49.232;9.222;2023-04-16T02:15:35;4.03;;;3.33;;
20080;SDS011;10200;49.232;9.222;2023-04-16T02:18:00;4.00;;;3.17;;
20080;SDS011;10200;49.232;9.222;2023-04-16T02:20:26;5.03;;;3.87;;
20080;SDS011;10200;49.232;9.222;2023-04-16T02:22:51;4.27;;;3.50;;
20080;SDS011;10200;49.232;9.222;2023-04-16T02:25:17;5.27;;;3.67;;
20080;SDS011;10200;49.232;9.222;2023-04-16T02:27:43;4.60;;;3.43;;
20080;SDS011;10200;49.232;9.222;2023-04-16T02:30:09;5.43;;;3.80;;
20080;SDS011;10200;49.232;9.222;2023-04-16T02:32:35;4.87;;;3.70;;
20080;SDS011;10200;49.232;9.222;2023-04-16T02:35:00;4.23;;;3.40;;
20080;SDS011;10200;49.232;9.222;2023-04-16T02:37:28;4.87;;;3.70;;
20080;SDS011;10200;49.232;9.222;2023-04-16T02:39:53;5.90;;;3.67;;
20080;SDS011;10200;49.232;9.222;2023-04-16T02:42:19;4.20;;;3.43;;
20080;SDS011;10200;49.232;9.222;2023-04-16T02:44:46;4.47;;;3.23;;
20080;SDS011;10200;49.232;9.222;2023-04-16T02:47:11;4.43;;;3.30;;
20080;SDS011;10200;49.232;9.222;2023-04-16T02:49:37;5.67;;;3.83;;
20080;SDS011;10200;49.232;9.222;2023-04-16T02:52:03;5.03;;;3.60;;
20080;SDS011;10200;49.232;9.222;2023-04-16T02:54:28;5.97;;;3.83;;
20080;SDS011;10200;49.232;9.222;2023-04-16T02:56:54;6.00;;;4.17;;
20080;SDS011;10200;49.232;9.222;2023-04-16T02:59:19;5.17;;;3.73;;
20080;SDS011;10200;49.232;9.222;2023-04-16T03:01:45;5.93;;;4.47;;
20080;SDS011;10200;49.232;9.222;2023-04-16T03:04:10;5.87;;;4.20;;
20080;SDS011;10200;49.232;9.222;2023-04-16T03:06:36;6.50;;;4.50;;
20080;SDS011;10200;49.232;9.222;2023-04-16T03:09:02;6.57;;;5.00;;
20080;SDS011;10200;49.232;9.222;2023-04-16T03:11:27;9.27;;;5.47;;
20080;SDS011;10200;49.232;9.222;2023-04-16T03:13:53;8.90;;;5.07;;
20080;SDS011;10200;49.232;9.222;2023-04-16T03:16:18;6.57;;;5.10;;
20080;SDS011;10200;49.232;9.222;2023-04-16T03:18:44;7.60;;;5.23;;
20080;SDS011;10200;49.232;9.222;2023-04-16T03:21:10;5.73;;;4.90;;
20080;SDS011;10200;49.232;9.222;2023-04-16T03:23:35;6.60;;;4.87;;
20080;SDS011;10200;49.232;9.222;2023-04-16T03:26:01;9.53;;;5.40;;
20080;SDS011;10200;49.232;9.222;2023-04-16T03:28:27;9.80;;;6.33;;
20080;SDS011;10200;49.232;9.222;2023-04-16T03:30:52;8.23;;;5.87;;
20080;SDS011;10200;49.232;9.222;2023-04-16T03:33:18;8.37;;;6.07;;
20080;SDS011;10200;49.232;9.222;2023-04-16T03:35:44;7.53;;;5.60;;
20080;SDS011;10200;49.232;9.222;2023-04-16T03:38:10;9.13;;;6.73;;
20080;SDS011;10200;49.232;9.222;2023-04-16T03:40:36;9.23;;;7.50;;
20080;SDS011;10200;49.232;9.222;2023-04-16T03:43:02;9.27;;;6.10;;
20080;SDS011;10200;49.232;9.222;2023-04-16T03:45:28;8.57;;;5.73;;
20080;SDS011;10200;49.232;9.222;2023-04-16T03:47:53;10.60;;;7.07;;
20080;SDS011;10200;49.232;9.222;2023-04-16T03:50:19;12.23;;;7.20;;
20080;SDS011;10200;49.232;9.222;2023-04-16T03:52:45;9.00;;;6.73;;
20080;SDS011;10200;49.232;9.222;2023-04-16T03:55:13;9.40;;;7.23;;
20080;SDS011;10200;49.232;9.222;2023-04-16T03:57:39;11.80;;;7.53;;
20080;SDS011;10200;49.232;9.222;2023-04-16T04:00:05;10.27;;;7.73;;
20080;SDS011;10200;49.232;9.222;2023-04-16T04:02:31;11.17;;;7.70;;
20080;SDS011;10200;49.232;9.222;2023-04-16T04:04:57;10.83;;;7.87;;
20080;SDS011;10200;49.232;9.222;2023-04-16T04:07:22;12.27;;;8.40;;
20080;SDS011;10200;49.232;9.222;2023-04-16T04:09:48;15.33;;;8.70;;
20080;SDS011;10200;49.232;9.222;2023-04-16T04:12:14;11.90;;;8.20;;
20080;SDS011;10200;49.232;9.222;2023-04-16T04:14:39;12.97;;;9.20;;
20080;SDS011;10200;49.232;9.222;2023-04-16T04:17:05;12.07;;;8.00;;
20080;SDS011;10200;49.232;9.222;2023-04-16T04:19:32;11.60;;;8.17;;
20080;SDS011;10200;49.232;9.222;2023-04-16T04:21:58;11.53;;;8.00;;
20080;SDS011;10200;49.232;9.222;2023-04-16T04:24:23;13.47;;;7.93;;
20080;SDS011;10200;49.232;9.222;2023-04-16T04:26:50;14.50;;;9.27;;
20080;SDS011;10200;49.232;9.222;2023-04-16T04:29:15;12.47;;;8.20;;
20080;SDS011;10200;49.232;9.222;2023-04-16T04:31:41;12.10;;;8.70;;
20080;SDS011;10200;49.232;9.222;2023-04-16T04:34:07;13.47;;;8.60;;
20080;SDS011;10200;49.232;9.222;2023-04-16T04:36:32;15.07;;;8.87;;
20080;SDS011;10200;49.232;9.222;2023-04-16T04:38:58;12.63;;;8.80;;
20080;SDS011;10200;49.232;9.222;2023-04-16T04:41:23;12.67;;;8.57;;
20080;SDS011;10200;49.232;9.222;2023-04-16T04:43:50;13.50;;;8.77;;
20080;SDS011;10200;49.232;9.222;2023-04-16T04:46:16;12.63;;;8.87;;
20080;SDS011;10200;49.232;9.222;2023-04-16T04:48:42;13.20;;;9.43;;
20080;SDS011;10200;49.232;9.222;2023-04-16T04:51:07;15.27;;;8.67;;
20080;SDS011;10200;49.232;9.222;2023-04-16T04:53:33;12.20;;;8.60;;
20080;SDS011;10200;49.232;9.222;2023-04-16T04:55:58;12.23;;;8.97;;
20080;SDS011;10200;49.232;9.222;2023-04-16T04:58:24;14.00;;;8.77;;
20080;SDS011;10200;49.232;9.222;2023-04-16T05:00:50;11.50;;;8.77;;
20080;SDS011;10200;49.232;9.222;2023-04-16T05:03:18;14.27;;;9.10;;
20080;SDS011;10200;49.232;9.222;2023-04-16T05:05:45;15.67;;;9.43;;
20080;SDS011;10200;49.232;9.222;2023-04-16T05:08:11;16.47;;;8.40;;
20080;SDS011;10200;49.232;9.222;2023-04-16T05:10:36;12.13;;;8.37;;
20080;SDS011;10200;49.232;9.222;2023-04-16T05:13:02;14.97;;;10.10;;
20080;SDS011;10200;49.232;9.222;2023-04-16T05:15:28;12.67;;;8.27;;
20080;SDS011;10200;49.232;9.222;2023-04-16T05:17:53;16.50;;;9.20;;
20080;SDS011;10200;49.232;9.222;2023-04-16T05:20:20;16.83;;;8.80;;
20080;SDS011;10200;49.232;9.222;2023-04-16T05:22:47;13.17;;;9.33;;
20080;SDS011;10200;49.232;9.222;2023-04-16T05:25:14;11.33;;;8.27;;
20080;SDS011;10200;49.232;9.222;2023-04-16T05:27:41;13.60;;;9.33;;
20080;SDS011;10200;49.232;9.222;2023-04-16T05:30:07;14.40;;;8.60;;
20080;SDS011;10200;49.232;9.222;2023-04-16T05:32:33;13.17;;;9.90;;
20080;SDS011;10200;49.232;9.222;2023-04-16T05:34:58;12.23;;;8.53;;
20080;SDS011;10200;49.232;9.222;2023-04-16T05:37:24;12.87;;;8.47;;
20080;SDS011;10200;49.232;9.222;2023-04-16T05:39:49;14.13;;;9.50;;
20080;SDS011;10200;49.232;9.222;2023-04-16T05:42:15;13.53;;;9.27;;
20080;SDS011;10200;49.232;9.222;2023-04-16T05:44:41;14.03;;;9.80;;
20080;SDS011;10200;49.232;9.222;2023-04-16T05:47:06;14.03;;;9.37;;
20080;SDS011;10200;49.232;9.222;2023-04-16T05:49:33;11.93;;;9.17;;
20080;SDS011;10200;49.232;9.222;2023-04-16T05:52:02;12.47;;;8.73;;
20080;SDS011;10200;49.232;9.222;2023-04-16T05:54:28;10.50;;;8.13;;
20080;SDS011;10200;49.232;9.222;2023-04-16T05:56:54;12.77;;;8.63;;
20080;SDS011;10200;49.232;9.222;2023-04-16T05:59:20;13.23;;;8.37;;
20080;SDS011;10200;49.232;9.222;2023-04-16T06:01:46;13.37;;;9.23;;
20080;SDS011;10200;49.232;9.222;2023-04-16T06:04:11;12.60;;;8.83;;
20080;SDS011;10200;49.232;9.222;2023-04-16T06:06:37;13.60;;;9.23;;
20080;SDS011;10200;49.232;9.222;2023-04-16T06:09:04;11.07;;;8.90;;
20080;SDS011;10200;49.232;9.222;2023-04-16T06:11:29;12.17;;;8.13;;
20080;SDS011;10200;49.232;9.222;2023-04-16T06:13:55;12.23;;;8.53;;
20080;SDS011;10200;49.232;9.222;2023-04-16T06:16:20;13.70;;;8.53;;
20080;SDS011;10200;49.232;9.222;2023-04-16T06:18:46;11.87;;;8.23;;
20080;SDS011;10200;49.232;9.222;2023-04-16T06:21:11;14.03;;;8.37;;
20080;SDS011;10200;49.232;9.222;2023-04-16T06:23:37;13.20;;;9.20;;
20080;SDS011;10200;49.232;9.222;2023-04-16T06:26:03;15.77;;;8.43;;
20080;SDS011;10200;49.232;9.222;2023-04-16T06:28:29;13.03;;;8.50;;
20080;SDS011;10200;49.232;9.222;2023-04-16T06:30:55;13.07;;;9.20;;
20080;SDS011;10200;49.232;9.222;2023-04-16T06:33:21;13.23;;;8.40;;
20080;SDS011;10200;49.232;9.222;2023-04-16T06:35:47;12.37;;;8.57;;
20080;SDS011;10200;49.232;9.222;2023-04-16T06:38:12;13.20;;;8.87;;
20080;SDS011;10200;49.232;9.222;2023-04-16T06:40:38;11.73;;;8.90;;
20080;SDS011;10200;49.232;9.222;2023-04-16T06:43:04;11.87;;;8.10;;
20080;SDS011;10200;49.232;9.222;2023-04-16T06:45:30;9.27;;;8.13;;
20080;SDS011;10200;49.232;9.222;2023-04-16T06:47:55;10.50;;;7.97;;
20080;SDS011;10200;49.232;9.222;2023-04-16T06:50:23;11.83;;;8.40;;
20080;SDS011;10200;49.232;9.222;2023-04-16T06:52:50;11.90;;;8.53;;
20080;SDS011;10200;49.232;9.222;2023-04-16T06:55:16;11.17;;;8.37;;
20080;SDS011;10200;49.232;9.222;2023-04-16T06:57:42;12.93;;;8.77;;
20080;SDS011;10200;49.232;9.222;2023-04-16T07:00:07;11.60;;;8.40;;
20080;SDS011;10200;49.232;9.222;2023-04-16T07:02:33;11.13;;;8.57;;
20080;SDS011;10200;49.232;9.222;2023-04-16T07:04:59;10.67;;;7.70;;
20080;SDS011;10200;49.232;9.222;2023-04-16T07:07:25;10.27;;;7.67;;
20080;SDS011;10200;49.232;9.222;2023-04-16T07:09:51;9.93;;;7.67;;
20080;SDS011;10200;49.232;9.222;2023-04-16T07:12:16;9.83;;;7.40;;
20080;SDS011;10200;49.232;9.222;2023-04-16T07:14:42;11.87;;;8.27;;
20080;SDS011;10200;49.232;9.222;2023-04-16T07:17:08;11.13;;;8.00;;
20080;SDS011;10200;49.232;9.222;2023-04-16T07:19:33;12.43;;;8.13;;
20080;SDS011;10200;49.232;9.222;2023-04-16T07:21:59;12.07;;;8.23;;
20080;SDS011;10200;49.232;9.222;2023-04-16T07:24:25;10.80;;;8.07;;
20080;SDS011;10200;49.232;9.222;2023-04-16T07:26:51;12.97;;;8.93;;
20080;SDS011;10200;49.232;9.222;2023-04-16T07:29:16;11.37;;;8.00;;
20080;SDS011;10200;49.232;9.222;2023-04-16T07:31:42;11.97;;;8.20;;
20080;SDS011;10200;49.232;9.222;2023-04-16T07:34:08;12.37;;;8.23;;
20080;SDS011;10200;49.232;9.222;2023-04-16T07:36:34;12.83;;;8.20;;
20080;SDS011;10200;49.232;9.222;2023-04-16T07:39:00;11.33;;;8.40;;
20080;SDS011;10200;49.232;9.222;2023-04-16T07:41:26;10.43;;;7.60;;
20080;SDS011;10200;49.232;9.222;2023-04-16T07:43:53;13.17;;;8.33;;
20080;SDS011;10200;49.232;9.222;2023-04-16T07:46:19;12.50;;;8.77;;
20080;SDS011;10200;49.232;9.222;2023-04-16T07:48:46;12.13;;;8.07;;
20080;SDS011;10200;49.232;9.222;2023-04-16T07:51:11;11.90;;;8.33;;
20080;SDS011;10200;49.232;9.222;2023-04-16T07:53:37;12.27;;;8.70;;
20080;SDS011;10200;49.232;9.222;2023-04-16T07:56:03;12.60;;;7.80;;
20080;SDS011;10200;49.232;9.222;2023-04-16T07:58:29;8.47;;;6.07;;
20080;SDS011;10200;49.232;9.222;2023-04-16T08:00:55;10.40;;;6.87;;
20080;SDS011;10200;49.232;9.222;2023-04-16T08:03:20;10.20;;;7.47;;
20080;SDS011;10200;49.232;9.222;2023-04-16T08:05:46;10.60;;;7.57;;
20080;SDS011;10200;49.232;9.222;2023-04-16T08:08:12;11.27;;;7.27;;
20080;SDS011;10200;49.232;9.222;2023-04-16T08:10:37;12.03;;;8.13;;
20080;SDS011;10200;49.232;9.222;2023-04-16T08:13:03;9.67;;;7.07;;
20080;SDS011;10200;49.232;9.222;2023-04-16T08:15:29;10.87;;;6.77;;
20080;SDS011;10200;49.232;9.222;2023-04-16T08:17:55;10.63;;;7.13;;
20080;SDS011;10200;49.232;9.222;2023-04-16T08:20:20;10.90;;;7.43;;
20080;SDS011;10200;49.232;9.222;2023-04-16T08:22:46;10.80;;;7.60;;
20080;SDS011;10200;49.232;9.222;2023-04-16T08:25:13;11.80;;;7.67;;
20080;SDS011;10200;49.232;9.222;2023-04-16T08:27:39;9.37;;;6.63;;
20080;SDS011;10200;49.232;9.222;2023-04-16T08:30:04;9.00;;;6.37;;
20080;SDS011;10200;49.232;9.222;2023-04-16T08:32:31;10.93;;;7.97;;
20080;SDS011;10200;49.232;9.222;2023-04-16T08:34:57;10.63;;;7.40;;
20080;SDS011;10200;49.232;9.222;2023-04-16T08:37:24;12.20;;;7.70;;
20080;SDS011;10200;49.232;9.222;2023-04-16T08:39:49;9.70;;;7.20;;
20080;SDS011;10200;49.232;9.222;2023-04-16T08:42:50;10.07;;;7.37;;
20080;SDS011;10200;49.232;9.222;2023-04-16T08:45:13;13.77;;;7.93;;
20080;SDS011;10200;49.232;9.222;2023-04-16T08:47:40;11.13;;;8.53;;
20080;SDS011;10200;49.232;9.222;2023-04-16T08:50:10;14.33;;;8.67;;
20080;SDS011;10200;49.232;9.222;2023-04-16T08:52:42;12.47;;;8.37;;
20080;SDS011;10200;49.232;9.222;2023-04-16T08:55:22;10.37;;;7.77;;
20080;SDS011;10200;49.232;9.222;2023-04-16T08:57:59;9.90;;;7.83;;
20080;SDS011;10200;49.232;9.222;2023-04-16T09:00:27;10.03;;;7.50;;
20080;SDS011;10200;49.232;9.222;2023-04-16T09:02:55;11.53;;;8.00;;
20080;SDS011;10200;49.232;9.222;2023-04-16T09:05:21;11.57;;;8.63;;
20080;SDS011;10200;49.232;9.222;2023-04-16T09:07:49;11.37;;;8.27;;
20080;SDS011;10200;49.232;9.222;2023-04-16T09:10:16;11.77;;;8.30;;
20080;SDS011;10200;49.232;9.222;2023-04-16T09:12:43;12.03;;;8.50;;
20080;SDS011;10200;49.232;9.222;2023-04-16T09:15:09;15.30;;;7.73;;
20080;SDS011;10200;49.232;9.222;2023-04-16T09:17:36;11.40;;;8.30;;
20080;SDS011;10200;49.232;9.222;2023-04-16T09:20:03;11.63;;;8.10;;
20080;SDS011;10200;49.232;9.222;2023-04-16T09:22:32;11.27;;;8.37;;
20080;SDS011;10200;49.232;9.222;2023-04-16T09:24:58;12.23;;;7.63;;
20080;SDS011;10200;49.232;9.222;2023-04-16T09:27:24;10.30;;;7.67;;
20080;SDS011;10200;49.232;9.222;2023-04-16T09:29:50;11.63;;;7.93;;
20080;SDS011;10200;49.232;9.222;2023-04-16T09:32:15;10.90;;;7.60;;
20080;SDS011;10200;49.232;9.222;2023-04-16T09:37:19;15.00;;;8.73;;
20080;SDS011;10200;49.232;9.222;2023-04-16T09:39:52;12.07;;;8.17;;
20080;SDS011;10200;49.232;9.222;2023-04-16T09:42:20;10.57;;;7.30;;
20080;SDS011;10200;49.232;9.222;2023-04-16T09:44:51;9.67;;;7.47;;
20080;SDS011;10200;49.232;9.222;2023-04-16T09:47:17;12.50;;;8.60;;
20080;SDS011;10200;49.232;9.222;2023-04-16T09:49:43;8.93;;;6.50;;
20080;SDS011;10200;49.232;9.222;2023-04-16T09:52:14;11.30;;;7.90;;
20080;SDS011;10200;49.232;9.222;2023-04-16T09:54:51;12.57;;;7.67;;
20080;SDS011;10200;49.232;9.222;2023-04-16T09:57:18;11.80;;;7.83;;
20080;SDS011;10200;49.232;9.222;2023-04-16T09:59:45;10.27;;;7.63;;
20080;SDS011;10200;49.232;9.222;2023-04-16T10:02:11;12.13;;;8.63;;
20080;SDS011;10200;49.232;9.222;2023-04-16T10:04:44;10.67;;;7.30;;
20080;SDS011;10200;49.232;9.222;2023-04-16T10:07:16;10.03;;;7.53;;
20080;SDS011;10200;49.232;9.222;2023-04-16T10:09:43;10.37;;;7.30;;
20080;SDS011;10200;49.232;9.222;2023-04-16T10:12:12;9.37;;;6.03;;
20080;SDS011;10200;49.232;9.222;2023-04-16T10:14:38;8.83;;;6.33;;
20080;SDS011;10200;49.232;9.222;2023-04-16T10:17:04;10.40;;;6.60;;
20080;SDS011;10200;49.232;9.222;2023-04-16T10:19:31;8.90;;;6.07;;
20080;SDS011;10200;49.232;9.222;2023-04-16T10:21:57;10.80;;;6.20;;
20080;SDS011;10200;49.232;9.222;2023-04-16T10:24:27;8.57;;;5.80;;
20080;SDS011;10200;49.232;9.222;2023-04-16T10:26:55;9.27;;;6.37;;
20080;SDS011;10200;49.232;9.222;2023-04-16T10:29:21;8.60;;;6.10;;
20080;SDS011;10200;49.232;9.222;2023-04-16T10:31:47;8.03;;;5.80;;
20080;SDS011;10200;49.232;9.222;2023-04-16T10:34:14;8.57;;;5.47;;
20080;SDS011;10200;49.232;9.222;2023-04-16T10:36:40;7.03;;;5.03;;
20080;SDS011;10200;49.232;9.222;2023-04-16T10:39:10;9.03;;;5.90;;
20080;SDS011;10200;49.232;9.222;2023-04-16T10:41:38;6.40;;;4.73;;
20080;SDS011;10200;49.232;9.222;2023-04-16T10:44:07;6.33;;;4.73;;
20080;SDS011;10200;49.232;9.222;2023-04-16T10:51:41;8.07;;;5.33;;
20080;SDS011;10200;49.232;9.222;2023-04-16T10:56:43;6.17;;;4.77;;
20080;SDS011;10200;49.232;9.222;2023-04-16T10:59:10;6.50;;;4.77;;
20080;SDS011;10200;49.232;9.222;2023-04-16T11:01:37;5.17;;;3.63;;
20080;SDS011;10200;49.232;9.222;2023-04-16T11:07:00;4.23;;;3.00;;
20080;SDS011;10200;49.232;9.222;2023-04-16T11:12:36;4.53;;;3.33;;
20080;SDS011;10200;49.232;9.222;2023-04-16T11:15:04;4.50;;;2.83;;
20080;SDS011;10200;49.232;9.222;2023-04-16T11:17:32;3.80;;;3.13;;
20080;SDS011;10200;49.232;9.222;2023-04-16T11:20:05;3.93;;;3.00;;
20080;SDS011;10200;49.232;9.222;2023-04-16T11:22:35;3.50;;;2.80;;
20080;SDS011;10200;49.232;9.222;2023-04-16T11:25:02;5.13;;;3.10;;
20080;SDS011;10200;49.232;9.222;2023-04-16T11:27:29;3.83;;;2.97;;
20080;SDS011;10200;49.232;9.222;2023-04-16T11:29:57;3.87;;;3.07;;
20080;SDS011;10200;49.232;9.222;2023-04-16T11:32:30;4.73;;;3.47;;
20080;SDS011;10200;49.232;9.222;2023-04-16T11:34:58;3.40;;;2.90;;
20080;SDS011;10200;49.232;9.222;2023-04-16T11:37:34;4.47;;;2.77;;
20080;SDS011;10200;49.232;9.222;2023-04-16T11:40:01;4.40;;;3.20;;
20080;SDS011;10200;49.232;9.222;2023-04-16T11:42:32;3.40;;;2.60;;
20080;SDS011;10200;49.232;9.222;2023-04-16T11:45:01;4.67;;;2.60;;
20080;SDS011;10200;49.232;9.222;2023-04-16T11:47:30;2.83;;;2.40;;
20080;SDS011;10200;49.232;9.222;2023-04-16T11:49:57;2.73;;;2.33;;
20080;SDS011;10200;49.232;9.222;2023-04-16T11:52:38;3.43;;;2.87;;
20080;SDS011;10200;49.232;9.222;2023-04-16T11:55:04;2.57;;;2.30;;
20080;SDS011;10200;49.232;9.222;2023-04-16T11:57:31;3.17;;;2.73;;
20080;SDS011;10200;49.232;9.222;2023-04-16T11:59:57;3.67;;;2.70;;
20080;SDS011;10200;49.232;9.222;2023-04-16T12:02:34;3.53;;;2.53;;
20080;SDS011;10200;49.232;9.222;2023-04-16T12:05:05;2.87;;;2.57;;
20080;SDS011;10200;49.232;9.222;2023-04-16T12:07:51;4.90;;;2.93;;
20080;SDS011;10200;49.232;9.222;2023-04-16T12:10:18;3.37;;;2.70;;
20080;SDS011;10200;49.232;9.222;2023-04-16T12:12:43;3.23;;;2.87;;
20080;SDS011;10200;49.232;9.222;2023-04-16T12:15:09;4.20;;;3.17;;
20080;SDS011;10200;49.232;9.222;2023-04-16T12:17:36;4.40;;;3.00;;
20080;SDS011;10200;49.232;9.222;2023-04-16T12:20:03;4.90;;;3.80;;
20080;SDS011;10200;49.232;9.222;2023-04-16T12:22:34;3.83;;;3.10;;
20080;SDS011;10200;49.232;9.222;2023-04-16T12:25:01;3.17;;;2.80;;
20080;SDS011;10200;49.232;9.222;2023-04-16T12:30:11;4.60;;;3.50;;
20080;SDS011;10200;49.232;9.222;2023-04-16T12:32:37;4.00;;;3.60;;
20080;SDS011;10200;49.232;9.222;2023-04-16T12:35:05;5.13;;;3.20;;
20080;SDS011;10200;49.232;9.222;2023-04-16T12:37:32;4.40;;;3.63;;
20080;SDS011;10200;49.232;9.222;2023-04-16T12:39:57;4.10;;;3.27;;
20080;SDS011;10200;49.232;9.222;2023-04-16T12:42:23;5.57;;;3.67;;
20080;SDS011;10200;49.232;9.222;2023-04-16T12:44:48;4.13;;;3.60;;
20080;SDS011;10200;49.232;9.222;2023-04-16T12:47:14;4.10;;;3.40;;
20080;SDS011;10200;49.232;9.222;2023-04-16T12:49:40;4.23;;;3.33;;
20080;SDS011;10200;49.232;9.222;2023-04-16T12:52:06;4.63;;;3.30;;
20080;SDS011;10200;49.232;9.222;2023-04-16T12:54:32;4.80;;;3.60;;
20080;SDS011;10200;49.232;9.222;2023-04-16T12:56:57;3.97;;;3.27;;
20080;SDS011;10200;49.232;9.222;2023-04-16T12:59:23;4.10;;;3.37;;
20080;SDS011;10200;49.232;9.222;2023-04-16T13:01:49;6.47;;;4.30;;
20080;SDS011;10200;49.232;9.222;2023-04-16T13:04:15;5.40;;;3.83;;
20080;SDS011;10200;49.232;9.222;2023-04-16T13:06:42;5.40;;;4.07;;
20080;SDS011;10200;49.232;9.222;2023-04-16T13:09:09;4.57;;;3.97;;
20080;SDS011;10200;49.232;9.222;2023-04-16T13:11:35;4.97;;;4.47;;
20080;SDS011;10200;49.232;9.222;2023-04-16T13:14:01;5.93;;;4.47;;
20080;SDS011;10200;49.232;9.222;2023-04-16T13:16:26;5.33;;;4.13;;
20080;SDS011;10200;49.232;9.222;2023-04-16T13:18:52;5.40;;;4.43;;
20080;SDS011;10200;49.232;9.222;2023-04-16T13:21:18;6.47;;;4.70;;
20080;SDS011;10200;49.232;9.222;2023-04-16T13:23:44;5.77;;;4.30;;
20080;SDS011;10200;49.232;9.222;2023-04-16T13:26:11;6.73;;;4.27;;
20080;SDS011;10200;49.232;9.222;2023-04-16T13:28:39;5.60;;;4.50;;
20080;SDS011;10200;49.232;9.222;2023-04-16T13:31:04;7.67;;;5.10;;
20080;SDS011;10200;49.232;9.222;2023-04-16T13:33:30;5.33;;;4.83;;
20080;SDS011;10200;49.232;9.222;2023-04-16T13:35:56;6.13;;;4.80;;
20080;SDS011;10200;49.232;9.222;2023-04-16T13:38:21;6.77;;;5.30;;
20080;SDS011;10200;49.232;9.222;2023-04-16T13:40:47;6.27;;;4.80;;
20080;SDS011;10200;49.232;9.222;2023-04-16T13:43:13;6.67;;;5.03;;
20080;SDS011;10200;49.232;9.222;2023-04-16T13:45:40;7.53;;;5.57;;
20080;SDS011;10200;49.232;9.222;2023-04-16T13:48:06;6.87;;;5.37;;
20080;SDS011;10200;49.232;9.222;2023-04-16T13:50:31;6.83;;;5.33;;
20080;SDS011;10200;49.232;9.222;2023-04-16T13:52:57;8.00;;;5.63;;
20080;SDS011;10200;49.232;9.222;2023-04-16T13:55:23;7.50;;;6.00;;
20080;SDS011;10200;49.232;9.222;2023-04-16T13:57:48;9.23;;;5.87;;
20080;SDS011;10200;49.232;9.222;2023-04-16T14:00:16;9.37;;;7.20;;
20080;SDS011;10200;49.232;9.222;2023-04-16T14:02:42;9.07;;;6.97;;
20080;SDS011;10200;49.232;9.222;2023-04-16T14:05:10;10.33;;;6.83;;
20080;SDS011;10200;49.232;9.222;2023-04-16T14:07:36;9.43;;;7.00;;
20080;SDS011;10200;49.232;9.222;2023-04-16T14:10:02;7.93;;;6.20;;
20080;SDS011;10200;49.232;9.222;2023-04-16T14:12:27;7.43;;;5.83;;
20080;SDS011;10200;49.232;9.222;2023-04-16T14:14:55;9.00;;;6.30;;
20080;SDS011;10200;49.232;9.222;2023-04-16T14:17:21;9.10;;;6.33;;
20080;SDS011;10200;49.232;9.222;2023-04-16T14:19:46;7.47;;;6.10;;
20080;SDS011;10200;49.232;9.222;2023-04-16T14:22:12;7.70;;;6.37;;
20080;SDS011;10200;49.232;9.222;2023-04-16T14:24:41;8.37;;;6.43;;
20080;SDS011;10200;49.232;9.222;2023-04-16T14:27:07;8.03;;;6.60;;
20080;SDS011;10200;49.232;9.222;2023-04-16T14:29:33;7.70;;;5.47;;
20080;SDS011;10200;49.232;9.222;2023-04-16T14:32:00;10.57;;;7.40;;
20080;SDS011;10200;49.232;9.222;2023-04-16T14:34:26;7.10;;;5.53;;
20080;SDS011;10200;49.232;9.222;2023-04-16T14:36:51;9.07;;;7.00;;
20080;SDS011;10200;49.232;9.222;2023-04-16T14:39:17;9.43;;;7.13;;
20080;SDS011;10200;49.232;9.222;2023-04-16T14:41:43;8.60;;;6.40;;
20080;SDS011;10200;49.232;9.222;2023-04-16T14:44:08;8.17;;;6.60;;
20080;SDS011;10200;49.232;9.222;2023-04-16T14:46:34;7.90;;;5.77;;
20080;SDS011;10200;49.232;9.222;2023-04-16T14:49:00;8.57;;;5.97;;
20080;SDS011;10200;49.232;9.222;2023-04-16T14:51:25;9.53;;;5.97;;
20080;SDS011;10200;49.232;9.222;2023-04-16T14:53:51;8.67;;;6.07;;
20080;SDS011;10200;49.232;9.222;2023-04-16T14:56:17;8.00;;;5.23;;
20080;SDS011;10200;49.232;9.222;2023-04-16T14:58:43;9.00;;;6.00;;
20080;SDS011;10200;49.232;9.222;2023-04-16T15:01:08;9.33;;;6.83;;